Time;durP1;ratioP1;P1;durP2;ratioP2;P2;SDS_P1;SDS_P2;PMS_P1;PMS_P2;Temp;Humidity;BMP_temperature;BMP_pressure;BME280_temperature;BME280_humidity;BME280_pressure;Samples;Min_cycle;Max_cycle;Signal;HPM_P1;HPM_P2
2022/02/18 00:00:17;;;;;;;;;;;22.40;31.60;;;;;;5051468;28;19913;-46
2022/02/18 00:02:43;;;;;;;;;;;22.40;31.70;;;;;;5041330;28;19971;-47
2022/02/18 00:05:09;;;;;;;;;;;22.40;31.70;;;;;;5047725;28;20006;-42
2022/02/18 00:07:34;;;;;;;;;;;22.30;31.70;;;;;;5040519;28;20291;-43
2022/02/18 00:10:00;;;;;;;;;;;22.30;31.70;;;;;;5039369;28;19904;-41
2022/02/18 00:12:26;;;;;;;;;;;22.30;31.80;;;;;;5043439;28;20253;-46
2022/02/18 00:14:52;;;;;;;;;;;22.30;31.80;;;;;;5035410;28;20019;-43
2022/02/18 00:17:19;;;;;;;;;;;22.30;31.80;;;;;;5040351;28;19904;-45
2022/02/18 00:19:45;;;;;;;;;;;22.30;31.80;;;;;;5047045;28;19915;-43
2022/02/18 00:22:10;;;;;;;;;;;22.30;31.80;;;;;;5046403;28;19904;-43
2022/02/18 00:24:36;;;;;;;;;;;22.30;31.90;;;;;;5042597;28;19975;-46
2022/02/18 00:27:02;;;;;;;;;;;22.30;31.90;;;;;;5037917;28;19919;-45
2022/02/18 00:29:27;;;;;;;;;;;22.30;31.90;;;;;;5035769;28;19905;-42
2022/02/18 00:31:58;;;;;;;;;;;22.20;31.90;;;;;;5036771;28;20358;-43
2022/02/18 00:34:24;;;;;;;;;;;22.20;32.00;;;;;;5029616;28;19924;-42
2022/02/18 00:36:50;;;;;;;;;;;22.20;32.00;;;;;;5047023;28;20291;-42
2022/02/18 00:39:15;;;;;;;;;;;22.20;32.00;;;;;;5027656;28;19905;-44
2022/02/18 00:41:43;;;;;;;;;;;22.30;32.10;;;;;;5046541;28;19976;-43
2022/02/18 00:44:10;;;;;;;;;;;22.20;32.00;;;;;;5034229;28;19952;-46
2022/02/18 00:46:35;;;;;;;;;;;22.20;32.00;;;;;;5019136;28;19948;-45
2022/02/18 00:49:01;;;;;;;;;;;22.20;32.10;;;;;;5021745;28;19905;-45
2022/02/18 00:51:27;;;;;;;;;;;22.20;32.10;;;;;;5052089;28;19914;-43
2022/02/18 00:53:52;;;;;;;;;;;22.20;32.10;;;;;;5047480;28;19964;-46
2022/02/18 00:56:18;;;;;;;;;;;22.20;32.10;;;;;;5041114;28;19909;-42
2022/02/18 00:58:43;;;;;;;;;;;22.20;32.20;;;;;;5036251;28;19905;-41
2022/02/18 01:01:09;;;;;;;;;;;22.20;32.20;;;;;;5038472;28;20296;-42
2022/02/18 01:03:36;;;;;;;;;;;22.20;32.20;;;;;;5038430;28;19904;-42
2022/02/18 01:06:01;;;;;;;;;;;22.20;32.20;;;;;;5043321;28;19905;-42
2022/02/18 01:08:27;;;;;;;;;;;22.20;32.20;;;;;;5040274;28;20018;-44
2022/02/18 01:10:53;;;;;;;;;;;22.20;32.30;;;;;;5047839;28;19935;-44
2022/02/18 01:13:19;;;;;;;;;;;22.20;32.30;;;;;;5044079;28;19904;-44
2022/02/18 01:15:45;;;;;;;;;;;22.10;32.30;;;;;;5032321;28;19920;-43
2022/02/18 01:18:11;;;;;;;;;;;22.10;32.30;;;;;;5039534;28;19920;-42
2022/02/18 01:20:38;;;;;;;;;;;22.20;32.40;;;;;;5035381;28;19915;-46
2022/02/18 01:23:03;;;;;;;;;;;22.10;32.30;;;;;;5049733;28;19998;-44
2022/02/18 01:25:33;;;;;;;;;;;22.10;32.40;;;;;;5035058;28;19917;-43
2022/02/18 01:28:02;;;;;;;;;;;22.10;32.40;;;;;;5019130;28;19916;-44
2022/02/18 01:30:28;;;;;;;;;;;22.10;33.00;;;;;;5037554;28;19904;-43
2022/02/18 01:32:54;;;;;;;;;;;22.10;32.40;;;;;;5042103;28;19904;-43
2022/02/18 01:35:20;;;;;;;;;;;22.10;32.50;;;;;;5025094;28;20039;-42
2022/02/18 01:37:48;;;;;;;;;;;22.10;32.50;;;;;;5038956;28;19935;-41
2022/02/18 01:40:14;;;;;;;;;;;22.10;32.50;;;;;;5044722;28;19905;-47
2022/02/18 01:42:40;;;;;;;;;;;22.10;32.50;;;;;;5048129;28;19905;-49
2022/02/18 01:45:07;;;;;;;;;;;22.10;32.50;;;;;;5024808;28;19912;-45
2022/02/18 01:47:33;;;;;;;;;;;22.10;32.50;;;;;;5038408;28;19917;-49
2022/02/18 01:49:59;;;;;;;;;;;22.10;32.50;;;;;;5051054;28;19966;-46
2022/02/18 01:52:26;;;;;;;;;;;22.00;32.50;;;;;;5038416;28;19913;-46
2022/02/18 01:54:52;;;;;;;;;;;22.10;32.60;;;;;;5022861;28;19935;-48
2022/02/18 01:57:17;;;;;;;;;;;22.10;32.60;;;;;;5038522;28;20320;-44
2022/02/18 01:59:43;;;;;;;;;;;22.00;32.50;;;;;;5049288;28;19936;-48
2022/02/18 02:02:09;;;;;;;;;;;22.00;33.20;;;;;;5049967;28;19905;-43
2022/02/18 02:04:35;;;;;;;;;;;22.00;32.60;;;;;;5042028;28;19916;-44
2022/02/18 02:07:03;;;;;;;;;;;22.00;32.60;;;;;;5041176;28;19913;-42
2022/02/18 02:09:30;;;;;;;;;;;22.00;32.70;;;;;;5040028;28;20344;-43
2022/02/18 02:11:56;;;;;;;;;;;22.00;32.70;;;;;;5024385;28;20007;-41
2022/02/18 02:14:23;;;;;;;;;;;22.00;32.70;;;;;;5046700;28;19916;-42
2022/02/18 02:16:48;;;;;;;;;;;22.00;32.70;;;;;;5041692;28;20328;-44
2022/02/18 02:19:14;;;;;;;;;;;22.00;32.70;;;;;;5052864;28;19905;-42
2022/02/18 02:21:45;;;;;;;;;;;22.00;32.70;;;;;;5025404;28;19955;-42
2022/02/18 02:24:13;;;;;;;;;;;22.00;32.70;;;;;;5028265;28;20066;-47
2022/02/18 02:26:39;;;;;;;;;;;22.00;32.70;;;;;;5040938;28;20240;-46
2022/02/18 02:29:05;;;;;;;;;;;22.00;32.70;;;;;;5022881;28;20255;-43
2022/02/18 02:31:31;;;;;;;;;;;22.00;32.70;;;;;;5022334;28;19935;-42
2022/02/18 02:33:57;;;;;;;;;;;22.00;32.70;;;;;;5045099;28;19925;-44
2022/02/18 02:36:24;;;;;;;;;;;21.90;32.60;;;;;;5049068;28;19916;-42
2022/02/18 02:38:51;;;;;;;;;;;21.90;32.60;;;;;;5043474;28;19905;-42
2022/02/18 02:41:17;;;;;;;;;;;21.90;32.70;;;;;;5028538;28;20034;-43
2022/02/18 02:43:44;;;;;;;;;;;21.90;32.70;;;;;;5033399;28;19912;-45
2022/02/18 02:46:11;;;;;;;;;;;21.90;32.70;;;;;;5026308;28;19916;-45
2022/02/18 02:48:37;;;;;;;;;;;21.90;32.70;;;;;;5033565;28;19904;-44
2022/02/18 02:51:24;;;;;;;;;;;21.90;32.70;;;;;;5030729;28;19904;-46
2022/02/18 02:53:50;;;;;;;;;;;21.90;32.80;;;;;;5025514;28;19924;-42
2022/02/18 02:56:16;;;;;;;;;;;21.90;32.80;;;;;;5047300;28;20046;-46
2022/02/18 02:58:42;;;;;;;;;;;21.90;32.80;;;;;;5029634;28;19915;-41
2022/02/18 03:01:08;;;;;;;;;;;21.90;32.80;;;;;;5031896;28;19912;-45
2022/02/18 03:03:46;;;;;;;;;;;21.90;32.80;;;;;;5028287;28;19904;-42
2022/02/18 03:06:12;;;;;;;;;;;21.90;32.80;;;;;;5052463;28;20339;-42
2022/02/18 03:08:39;;;;;;;;;;;21.90;32.80;;;;;;5026190;28;20337;-43
2022/02/18 03:11:15;;;;;;;;;;;21.90;32.90;;;;;;5047803;28;19971;-44
2022/02/18 03:13:53;;;;;;;;;;;21.90;32.90;;;;;;5030488;28;19935;-42
2022/02/18 03:16:20;;;;;;;;;;;21.80;32.80;;;;;;5024802;28;19999;-45
2022/02/18 03:18:47;;;;;;;;;;;21.80;32.90;;;;;;5027349;28;19905;-43
2022/02/18 03:21:13;;;;;;;;;;;21.80;32.80;;;;;;5043363;28;20255;-42
2022/02/18 03:23:39;;;;;;;;;;;21.90;32.90;;;;;;5031788;28;19909;-42
2022/02/18 03:26:08;;;;;;;;;;;21.90;32.90;;;;;;5019704;28;20464;-42
2022/02/18 03:28:34;;;;;;;;;;;21.80;32.90;;;;;;5023547;28;19905;-41
2022/02/18 03:31:09;;;;;;;;;;;21.80;32.90;;;;;;5033459;28;20239;-42
2022/02/18 03:33:36;;;;;;;;;;;21.80;32.90;;;;;;5030972;28;19996;-43
2022/02/18 03:36:03;;;;;;;;;;;21.80;32.90;;;;;;5035145;28;20224;-43
2022/02/18 03:38:29;;;;;;;;;;;21.80;32.90;;;;;;5030021;28;20239;-52
2022/02/18 03:40:54;;;;;;;;;;;21.80;32.90;;;;;;5029485;28;19904;-42
2022/02/18 03:43:20;;;;;;;;;;;21.80;32.90;;;;;;5023021;28;19905;-43
2022/02/18 03:46:04;;;;;;;;;;;21.80;33.00;;;;;;5049534;28;19962;-49
2022/02/18 03:48:32;;;;;;;;;;;21.80;33.00;;;;;;5040617;28;20011;-44
2022/02/18 03:50:59;;;;;;;;;;;21.80;33.00;;;;;;5034030;28;20335;-44
2022/02/18 03:53:27;;;;;;;;;;;21.80;33.00;;;;;;5033676;28;19928;-47
2022/02/18 03:56:19;;;;;;;;;;;21.80;33.00;;;;;;5033003;28;20316;-44
2022/02/18 03:58:47;;;;;;;;;;;21.80;33.10;;;;;;5020434;28;20057;-45
2022/02/18 04:01:13;;;;;;;;;;;21.70;33.00;;;;;;5046313;28;20007;-43
2022/02/18 04:03:40;;;;;;;;;;;21.80;33.10;;;;;;5024571;28;19916;-47
2022/02/18 04:06:14;;;;;;;;;;;21.70;33.10;;;;;;5052949;28;20001;-43
2022/02/18 04:08:44;;;;;;;;;;;21.80;33.10;;;;;;5018312;28;19927;-46
2022/02/18 04:11:22;;;;;;;;;;;21.80;33.10;;;;;;5024003;28;19909;-44
2022/02/18 04:13:50;;;;;;;;;;;21.80;33.10;;;;;;5022587;28;20325;-45
2022/02/18 04:16:16;;;;;;;;;;;21.70;33.10;;;;;;5027502;28;19971;-44
2022/02/18 04:18:42;;;;;;;;;;;21.70;33.10;;;;;;5036850;28;19917;-41
2022/02/18 04:21:08;;;;;;;;;;;21.70;33.10;;;;;;5033959;28;19905;-41
2022/02/18 04:23:46;;;;;;;;;;;21.70;33.20;;;;;;5017943;28;19908;-42
2022/02/18 04:26:13;;;;;;;;;;;21.70;33.80;;;;;;5020437;28;20338;-43
2022/02/18 04:28:38;;;;;;;;;;;21.70;33.20;;;;;;5052904;28;19999;-42
2022/02/18 04:31:04;;;;;;;;;;;21.70;33.20;;;;;;5052356;28;19905;-44
2022/02/18 04:33:30;;;;;;;;;;;21.70;33.20;;;;;;5035577;28;19916;-46
2022/02/18 04:35:55;;;;;;;;;;;21.80;33.30;;;;;;5036604;28;19905;-42
2022/02/18 04:38:21;;;;;;;;;;;21.70;33.30;;;;;;5051396;28;19904;-42
2022/02/18 04:40:47;;;;;;;;;;;21.70;33.30;;;;;;5049555;28;19904;-44
2022/02/18 04:43:12;;;;;;;;;;;21.70;33.40;;;;;;5048373;28;19908;-43
2022/02/18 04:45:38;;;;;;;;;;;21.70;33.40;;;;;;5035922;28;19905;-44
2022/02/18 04:48:04;;;;;;;;;;;21.70;33.40;;;;;;5018944;28;19916;-42
2022/02/18 04:50:30;;;;;;;;;;;21.70;33.40;;;;;;5052469;28;19985;-43
2022/02/18 04:52:56;;;;;;;;;;;21.70;33.40;;;;;;5051602;28;19917;-47
2022/02/18 04:55:22;;;;;;;;;;;21.70;33.40;;;;;;5051310;28;19913;-46
2022/02/18 04:57:48;;;;;;;;;;;21.70;33.50;;;;;;5039491;28;19905;-45
2022/02/18 05:00:15;;;;;;;;;;;21.70;33.50;;;;;;5048801;28;20283;-47
2022/02/18 05:02:42;;;;;;;;;;;21.70;33.50;;;;;;5040865;28;19909;-46
2022/02/18 05:05:08;;;;;;;;;;;21.70;33.50;;;;;;5042088;28;20331;-45
2022/02/18 05:07:34;;;;;;;;;;;21.70;33.50;;;;;;5046327;28;19966;-47
2022/02/18 05:10:03;;;;;;;;;;;21.70;33.50;;;;;;5041268;28;19905;-44
2022/02/18 05:12:29;;;;;;;;;;;21.70;33.60;;;;;;5045113;28;19908;-44
2022/02/18 05:14:55;;;;;;;;;;;21.70;33.60;;;;;;5045806;28;19913;-43
2022/02/18 05:17:20;;;;;;;;;;;21.70;33.60;;;;;;5043632;28;20275;-44
2022/02/18 05:19:46;;;;;;;;;;;21.70;33.60;;;;;;5050262;28;20292;-43
2022/02/18 05:22:12;;;;;;;;;;;21.60;33.60;;;;;;5045003;28;19909;-43
2022/02/18 05:24:37;;;;;;;;;;;21.60;33.60;;;;;;5056972;28;19905;-43
2022/02/18 05:27:04;;;;;;;;;;;21.60;33.60;;;;;;5051083;28;19930;-42
2022/02/18 05:29:30;;;;;;;;;;;21.60;33.60;;;;;;5046220;28;19916;-42
2022/02/18 05:31:55;;;;;;;;;;;21.60;33.60;;;;;;5052951;28;19905;-43
2022/02/18 05:34:21;;;;;;;;;;;21.60;33.70;;;;;;5040654;28;20248;-44
2022/02/18 05:36:47;;;;;;;;;;;21.60;33.70;;;;;;5054538;28;19904;-42
2022/02/18 05:39:12;;;;;;;;;;;21.60;33.70;;;;;;5055955;28;19908;-42
2022/02/18 05:41:38;;;;;;;;;;;21.60;33.70;;;;;;5058066;28;19947;-43
2022/02/18 05:44:04;;;;;;;;;;;21.60;33.70;;;;;;5053104;28;19905;-43
2022/02/18 05:46:30;;;;;;;;;;;21.60;33.80;;;;;;5057764;28;19905;-41
2022/02/18 05:48:55;;;;;;;;;;;21.60;33.80;;;;;;5053023;28;19905;-42
2022/02/18 05:51:21;;;;;;;;;;;21.60;33.80;;;;;;5055572;28;20240;-42
2022/02/18 05:53:46;;;;;;;;;;;21.60;33.80;;;;;;5043167;28;20011;-41
2022/02/18 05:56:12;;;;;;;;;;;21.60;33.80;;;;;;5049245;28;19909;-44
2022/02/18 05:58:38;;;;;;;;;;;21.60;33.90;;;;;;5038863;28;20439;-45
2022/02/18 06:01:03;;;;;;;;;;;21.60;33.90;;;;;;5039018;28;19924;-48
2022/02/18 06:03:29;;;;;;;;;;;21.60;33.90;;;;;;5030112;28;19927;-45
2022/02/18 06:05:55;;;;;;;;;;;21.60;33.90;;;;;;5039130;28;19904;-42
2022/02/18 06:08:20;;;;;;;;;;;21.50;33.90;;;;;;5044723;28;19905;-46
2022/02/18 06:10:46;;;;;;;;;;;21.60;33.90;;;;;;5055961;28;19987;-44
2022/02/18 06:13:11;;;;;;;;;;;21.50;33.90;;;;;;5051618;28;19974;-48
2022/02/18 06:15:37;;;;;;;;;;;21.60;34.00;;;;;;5057127;28;19999;-44
2022/02/18 06:18:03;;;;;;;;;;;21.50;33.90;;;;;;5052324;28;19921;-45
2022/02/18 06:20:28;;;;;;;;;;;21.50;33.90;;;;;;5020658;28;19975;-43
2022/02/18 06:22:54;;;;;;;;;;;21.50;34.00;;;;;;5040517;28;19999;-49
2022/02/18 06:25:20;;;;;;;;;;;21.50;34.00;;;;;;5039596;28;20003;-45
2022/02/18 06:27:45;;;;;;;;;;;21.50;34.00;;;;;;5049081;28;19905;-45
2022/02/18 06:30:12;;;;;;;;;;;21.50;34.00;;;;;;5042112;28;19909;-44
2022/02/18 06:32:38;;;;;;;;;;;21.50;34.00;;;;;;5054964;28;19905;-42
2022/02/18 06:35:04;;;;;;;;;;;21.50;34.00;;;;;;5044187;28;19912;-43
2022/02/18 06:37:30;;;;;;;;;;;21.50;34.00;;;;;;5057688;28;19905;-44
2022/02/18 06:39:55;;;;;;;;;;;21.50;34.00;;;;;;5046188;28;19931;-44
2022/02/18 06:42:21;;;;;;;;;;;21.50;34.10;;;;;;5056845;28;20244;-43
2022/02/18 06:44:47;;;;;;;;;;;21.50;34.10;;;;;;5051128;28;19904;-45
2022/02/18 06:47:12;;;;;;;;;;;21.50;34.10;;;;;;5037727;28;20017;-43
2022/02/18 06:49:38;;;;;;;;;;;21.50;34.10;;;;;;5052592;28;19905;-45
2022/02/18 06:52:04;;;;;;;;;;;21.50;34.20;;;;;;5037278;28;19915;-43
2022/02/18 06:54:30;;;;;;;;;;;21.50;34.10;;;;;;5052436;28;19948;-41
2022/02/18 06:56:57;;;;;;;;;;;21.50;34.20;;;;;;5047103;28;19915;-42
2022/02/18 06:59:23;;;;;;;;;;;21.40;34.10;;;;;;5042185;28;19909;-43
2022/02/18 07:01:53;;;;;;;;;;;21.40;34.20;;;;;;5047899;28;20282;-46
2022/02/18 07:04:19;;;;;;;;;;;21.50;34.20;;;;;;5046425;28;19911;-42
2022/02/18 07:06:44;;;;;;;;;;;21.50;34.20;;;;;;5039113;28;19905;-44
2022/02/18 07:09:13;;;;;;;;;;;21.40;34.20;;;;;;5046822;28;19905;-43
2022/02/18 07:11:39;;;;;;;;;;;21.50;34.30;;;;;;5043098;28;19916;-43
2022/02/18 07:14:09;;;;;;;;;;;21.50;34.30;;;;;;5055139;28;19912;-43
2022/02/18 07:16:41;;;;;;;;;;;21.40;34.30;;;;;;5051714;28;19955;-40
2022/02/18 07:19:13;;;;;;;;;;;21.40;34.30;;;;;;5051590;28;19912;-42
2022/02/18 07:21:39;;;;;;;;;;;21.40;34.30;;;;;;5053267;28;19915;-42
2022/02/18 07:24:06;;;;;;;;;;;21.40;34.40;;;;;;5053648;28;19904;-44
2022/02/18 07:26:31;;;;;;;;;;;21.40;34.40;;;;;;5037156;28;19912;-44
2022/02/18 07:28:57;;;;;;;;;;;21.40;34.40;;;;;;5036277;28;19905;-44
2022/02/18 07:31:25;;;;;;;;;;;21.40;34.50;;;;;;5055761;28;19915;-46
2022/02/18 07:33:50;;;;;;;;;;;21.40;34.50;;;;;;5055369;28;19913;-45
2022/02/18 07:36:16;;;;;;;;;;;21.40;34.50;;;;;;5035642;28;19905;-44
2022/02/18 07:38:42;;;;;;;;;;;21.40;34.50;;;;;;5048015;28;19908;-41
2022/02/18 07:41:08;;;;;;;;;;;21.40;34.70;;;;;;5032499;28;19909;-42
2022/02/18 07:43:33;;;;;;;;;;;21.40;34.80;;;;;;5052758;28;20291;-43
2022/02/18 07:46:02;;;;;;;;;;;21.40;34.90;;;;;;5037753;28;19928;-43
2022/02/18 07:48:27;;;;;;;;;;;21.40;35.00;;;;;;5050351;28;19905;-41
2022/02/18 07:50:53;;;;;;;;;;;21.40;35.00;;;;;;5054407;28;19966;-43
2022/02/18 07:53:19;;;;;;;;;;;21.50;35.00;;;;;;5034320;28;20233;-45
2022/02/18 07:55:44;;;;;;;;;;;21.60;35.00;;;;;;5035608;28;19913;-44
2022/02/18 07:58:11;;;;;;;;;;;21.60;35.00;;;;;;5041344;28;19916;-44
2022/02/18 08:00:38;;;;;;;;;;;21.70;35.00;;;;;;5023398;28;20276;-40
2022/02/18 08:03:04;;;;;;;;;;;21.80;35.00;;;;;;5018321;28;19966;-44
2022/02/18 08:05:30;;;;;;;;;;;21.90;35.00;;;;;;5017517;28;20003;-43
2022/02/18 08:07:57;;;;;;;;;;;22.00;34.90;;;;;;5019449;28;19960;-42
2022/02/18 08:10:25;;;;;;;;;;;22.10;34.90;;;;;;5021283;28;20300;-47
2022/02/18 08:12:51;;;;;;;;;;;22.10;34.90;;;;;;5039507;28;19908;-50
2022/02/18 08:15:16;;;;;;;;;;;22.20;34.90;;;;;;5035054;28;20248;-45
2022/02/18 08:17:42;;;;;;;;;;;22.30;34.90;;;;;;5034579;28;19913;-42
2022/02/18 08:20:08;;;;;;;;;;;22.40;34.90;;;;;;5020357;28;19905;-44
2022/02/18 08:22:34;;;;;;;;;;;22.40;34.90;;;;;;5022631;28;19917;-45
2022/02/18 08:25:00;;;;;;;;;;;22.50;34.90;;;;;;5027747;28;19980;-43
2022/02/18 08:27:26;;;;;;;;;;;22.60;34.90;;;;;;5018850;28;20205;-43
2022/02/18 08:29:56;;;;;;;;;;;22.60;34.90;;;;;;5022378;28;19908;-48
2022/02/18 08:32:21;;;;;;;;;;;22.70;34.90;;;;;;5029753;28;19912;-43
2022/02/18 08:34:47;;;;;;;;;;;22.70;34.90;;;;;;5015612;28;19913;-45
2022/02/18 08:37:13;;;;;;;;;;;22.80;34.90;;;;;;5016152;28;19964;-44
2022/02/18 08:39:40;;;;;;;;;;;22.80;34.90;;;;;;5027768;28;19955;-43
2022/02/18 08:42:07;;;;;;;;;;;22.90;34.90;;;;;;5032229;28;19991;-45
2022/02/18 08:44:33;;;;;;;;;;;23.00;34.90;;;;;;5035109;28;19909;-44
2022/02/18 08:46:58;;;;;;;;;;;23.00;34.80;;;;;;5030097;28;19931;-43
2022/02/18 08:49:25;;;;;;;;;;;23.10;34.80;;;;;;5032805;28;19983;-42
2022/02/18 08:51:51;;;;;;;;;;;23.20;34.80;;;;;;5035147;28;19966;-43
2022/02/18 08:54:17;;;;;;;;;;;23.20;34.80;;;;;;5032948;28;19913;-48
2022/02/18 08:56:44;;;;;;;;;;;23.20;34.70;;;;;;5032420;28;19967;-45
2022/02/18 08:59:10;;;;;;;;;;;23.30;34.80;;;;;;5031723;28;20260;-48
2022/02/18 09:01:36;;;;;;;;;;;23.30;34.70;;;;;;5042236;28;19923;-46
2022/02/18 09:04:02;;;;;;;;;;;23.40;34.80;;;;;;5056627;28;20312;-47
2022/02/18 09:06:32;;;;;;;;;;;23.40;34.70;;;;;;5042057;28;19905;-48
2022/02/18 09:08:57;;;;;;;;;;;23.50;34.70;;;;;;5042919;28;19904;-46
2022/02/18 09:11:23;;;;;;;;;;;23.50;34.60;;;;;;5040156;28;19912;-47
2022/02/18 09:13:49;;;;;;;;;;;23.60;34.60;;;;;;5042949;28;19917;-50
2022/02/18 09:16:16;;;;;;;;;;;23.60;34.60;;;;;;5047273;28;20069;-45
2022/02/18 09:18:48;;;;;;;;;;;23.70;34.60;;;;;;5054901;28;20046;-48
2022/02/18 09:21:13;;;;;;;;;;;23.70;34.50;;;;;;5056987;28;19904;-44
2022/02/18 09:23:39;;;;;;;;;;;23.70;34.50;;;;;;5057840;28;19904;-43
2022/02/18 09:26:05;;;;;;;;;;;23.80;34.50;;;;;;5057920;28;19905;-45
2022/02/18 09:28:30;;;;;;;;;;;23.80;34.60;;;;;;5057754;28;19999;-47
2022/02/18 09:30:56;;;;;;;;;;;23.80;35.20;;;;;;5057539;28;19947;-45
2022/02/18 09:33:22;;;;;;;;;;;23.80;34.60;;;;;;5054536;28;19966;-46
2022/02/18 09:35:48;;;;;;;;;;;23.80;34.60;;;;;;5057847;28;20382;-42
2022/02/18 09:38:14;;;;;;;;;;;23.90;34.70;;;;;;5057295;28;19944;-45
2022/02/18 09:40:40;;;;;;;;;;;23.90;34.70;;;;;;5057333;28;19905;-45
2022/02/18 09:43:06;;;;;;;;;;;23.80;34.70;;;;;;5055889;28;19915;-46
2022/02/18 09:45:32;;;;;;;;;;;23.80;34.80;;;;;;5041698;28;19915;-51
2022/02/18 09:47:59;;;;;;;;;;;23.80;34.90;;;;;;5046762;28;19908;-43
2022/02/18 09:50:25;;;;;;;;;;;23.70;35.50;;;;;;5045467;28;19920;-45
2022/02/18 09:52:51;;;;;;;;;;;23.70;35.00;;;;;;5041012;28;20350;-45
2022/02/18 09:55:16;;;;;;;;;;;23.60;35.00;;;;;;5056167;28;19958;-43
2022/02/18 09:57:45;;;;;;;;;;;23.60;35.10;;;;;;5055243;28;19928;-43
2022/02/18 10:00:12;;;;;;;;;;;23.60;35.20;;;;;;5061947;28;19940;-45
2022/02/18 10:02:44;;;;;;;;;;;23.50;35.30;;;;;;5049118;28;19916;-42
2022/02/18 10:05:10;;;;;;;;;;;23.50;35.40;;;;;;5056102;28;19905;-44
2022/02/18 10:07:54;;;;;;;;;;;23.40;35.50;;;;;;5055013;28;19920;-46
2022/02/18 10:10:20;;;;;;;;;;;23.40;35.70;;;;;;5037379;28;20324;-45
2022/02/18 10:12:46;;;;;;;;;;;23.30;35.80;;;;;;5040550;28;19904;-45
2022/02/18 10:15:12;;;;;;;;;;;23.30;35.90;;;;;;5057009;28;19970;-49
2022/02/18 10:17:39;;;;;;;;;;;23.20;36.00;;;;;;5052130;28;20328;-43
2022/02/18 10:20:22;;;;;;;;;;;23.20;36.10;;;;;;5036508;28;19912;-43
2022/02/18 10:22:55;;;;;;;;;;;23.10;36.20;;;;;;5040961;28;19958;-44
2022/02/18 10:25:24;;;;;;;;;;;23.10;36.30;;;;;;5054537;28;19905;-45
2022/02/18 10:27:52;;;;;;;;;;;23.10;36.50;;;;;;5056347;28;19959;-43
2022/02/18 10:30:22;;;;;;;;;;;23.00;36.60;;;;;;5052563;28;19943;-45
2022/02/18 10:32:49;;;;;;;;;;;23.00;36.80;;;;;;5055487;28;20295;-44
2022/02/18 10:35:15;;;;;;;;;;;23.00;36.90;;;;;;5037238;28;20340;-42
2022/02/18 10:37:46;;;;;;;;;;;23.00;37.00;;;;;;5042656;28;19916;-44
2022/02/18 10:40:16;;;;;;;;;;;22.90;37.10;;;;;;5053607;28;20336;-43
2022/02/18 10:42:43;;;;;;;;;;;22.90;37.20;;;;;;5039453;28;19992;-46
2022/02/18 10:45:26;;;;;;;;;;;22.90;37.30;;;;;;5045871;28;20371;-43
2022/02/18 10:48:05;;;;;;;;;;;22.90;37.40;;;;;;5046766;28;19940;-44
2022/02/18 10:50:31;;;;;;;;;;;22.90;37.50;;;;;;5056264;28;20251;-43
2022/02/18 10:53:08;;;;;;;;;;;22.90;37.70;;;;;;5046646;28;19905;-42
2022/02/18 10:55:54;;;;;;;;;;;22.90;37.80;;;;;;5056197;28;19974;-44
2022/02/18 10:58:24;;;;;;;;;;;22.90;37.90;;;;;;5049760;28;19908;-46
2022/02/18 11:01:08;;;;;;;;;;;22.90;38.00;;;;;;5054828;28;20003;-42
2022/02/18 11:03:35;;;;;;;;;;;22.80;38.00;;;;;;5039783;28;19917;-41
2022/02/18 11:06:08;;;;;;;;;;;22.80;38.10;;;;;;5055841;28;19904;-41
2022/02/18 11:08:34;;;;;;;;;;;22.80;38.10;;;;;;5051915;28;19916;-42
2022/02/18 11:11:08;;;;;;;;;;;22.80;38.20;;;;;;5035442;28;20291;-46
2022/02/18 11:13:35;;;;;;;;;;;22.80;38.30;;;;;;5051370;28;19949;-48
2022/02/18 11:16:02;;;;;;;;;;;22.80;38.30;;;;;;5055885;28;19912;-45
2022/02/18 11:18:28;;;;;;;;;;;22.80;38.40;;;;;;5047521;28;19904;-44
2022/02/18 11:20:54;;;;;;;;;;;22.70;38.40;;;;;;5051259;28;19944;-42
2022/02/18 11:23:21;;;;;;;;;;;22.70;38.40;;;;;;5042764;28;20343;-45
2022/02/18 11:25:46;;;;;;;;;;;22.70;38.50;;;;;;5052338;28;19909;-49
2022/02/18 11:28:13;;;;;;;;;;;22.70;38.60;;;;;;5046863;28;19999;-48
2022/02/18 11:30:43;;;;;;;;;;;22.80;38.70;;;;;;5040965;28;19935;-50
2022/02/18 11:33:21;;;;;;;;;;;22.80;38.70;;;;;;5046785;28;20006;-51
2022/02/18 11:35:47;;;;;;;;;;;22.80;38.70;;;;;;5040704;28;20313;-48
2022/02/18 11:38:37;;;;;;;;;;;22.80;38.70;;;;;;5040128;28;19916;-52
2022/02/18 11:41:11;;;;;;;;;;;22.80;38.70;;;;;;5036409;28;19963;-51
2022/02/18 11:43:48;;;;;;;;;;;22.90;38.80;;;;;;5039459;28;19904;-47
2022/02/18 11:46:24;;;;;;;;;;;22.90;38.90;;;;;;5045085;28;19904;-52
2022/02/18 11:48:50;;;;;;;;;;;23.00;39.00;;;;;;5044165;28;19917;-54
2022/02/18 11:51:23;;;;;;;;;;;23.10;39.50;;;;;;5039141;28;19916;-47
2022/02/18 11:53:49;;;;;;;;;;;23.20;38.70;;;;;;5044112;28;19905;-45
2022/02/18 11:56:17;;;;;;;;;;;23.20;38.50;;;;;;5047599;28;19979;-46
2022/02/18 11:59:03;;;;;;;;;;;23.40;38.50;;;;;;5040960;28;19962;-46
2022/02/18 12:01:50;;;;;;;;;;;23.50;38.70;;;;;;5038725;28;19963;-49
2022/02/18 12:04:16;;;;;;;;;;;23.60;38.60;;;;;;5051290;28;19908;-49
2022/02/18 12:06:42;;;;;;;;;;;23.60;38.40;;;;;;5040762;28;20296;-45
2022/02/18 12:09:08;;;;;;;;;;;23.70;38.20;;;;;;5042803;28;19990;-48
2022/02/18 12:11:40;;;;;;;;;;;23.80;38.20;;;;;;5046282;28;20343;-53
2022/02/18 12:14:11;;;;;;;;;;;23.90;38.10;;;;;;5025212;28;20338;-49
2022/02/18 12:16:37;;;;;;;;;;;23.90;37.90;;;;;;5040327;28;20053;-49
2022/02/18 12:19:06;;;;;;;;;;;24.00;37.90;;;;;;5045331;28;20030;-46
2022/02/18 12:21:32;;;;;;;;;;;24.00;37.90;;;;;;5036997;28;19905;-49
2022/02/18 12:24:17;;;;;;;;;;;24.00;37.90;;;;;;5042242;28;19904;-49
2022/02/18 12:26:43;;;;;;;;;;;24.10;37.90;;;;;;5039299;28;20301;-45
2022/02/18 12:29:13;;;;;;;;;;;24.20;37.90;;;;;;5037936;28;19916;-45
2022/02/18 12:31:52;;;;;;;;;;;24.20;37.80;;;;;;5044251;28;19905;-45
2022/02/18 12:34:44;;;;;;;;;;;24.30;37.80;;;;;;5041594;28;20027;-45
2022/02/18 12:37:10;;;;;;;;;;;24.30;37.70;;;;;;5032984;28;19967;-41
2022/02/18 12:39:40;;;;;;;;;;;24.40;37.70;;;;;;5040826;28;19905;-43
2022/02/18 12:42:06;;;;;;;;;;;24.40;37.70;;;;;;5038605;28;19983;-51
2022/02/18 12:44:34;;;;;;;;;;;24.40;37.50;;;;;;5043780;28;20228;-54
2022/02/18 12:47:00;;;;;;;;;;;24.40;37.40;;;;;;5040387;28;19914;-50
2022/02/18 12:49:41;;;;;;;;;;;24.50;37.40;;;;;;5044442;28;19904;-49
2022/02/18 12:52:08;;;;;;;;;;;24.50;37.70;;;;;;5034495;28;20261;-46
2022/02/18 12:54:54;;;;;;;;;;;24.50;37.30;;;;;;5033558;28;19921;-44
2022/02/18 12:57:22;;;;;;;;;;;24.60;37.30;;;;;;5034030;28;19956;-44
2022/02/18 12:59:49;;;;;;;;;;;24.60;37.20;;;;;;5042757;28;20307;-47
2022/02/18 13:02:39;;;;;;;;;;;24.60;37.20;;;;;;5048637;28;19920;-47
2022/02/18 13:05:10;;;;;;;;;;;24.60;37.10;;;;;;5042577;28;20220;-49
2022/02/18 13:07:37;;;;;;;;;;;24.70;37.10;;;;;;5041505;28;19905;-47
2022/02/18 13:10:05;;;;;;;;;;;24.70;37.00;;;;;;5036072;28;19921;-44
2022/02/18 13:12:31;;;;;;;;;;;24.70;37.00;;;;;;5048042;28;19904;-47
2022/02/18 13:15:10;;;;;;;;;;;24.70;37.00;;;;;;5045890;28;19935;-45
2022/02/18 13:17:36;;;;;;;;;;;24.70;37.00;;;;;;5042906;28;19983;-47
2022/02/18 13:20:02;;;;;;;;;;;24.80;37.00;;;;;;5049966;28;19912;-49
2022/02/18 13:22:32;;;;;;;;;;;24.70;36.90;;;;;;5044501;28;20057;-45
2022/02/18 13:24:58;;;;;;;;;;;24.80;37.00;;;;;;5035043;28;19996;-42
2022/02/18 13:27:24;;;;;;;;;;;24.80;37.00;;;;;;5037323;28;20331;-45
2022/02/18 13:29:54;;;;;;;;;;;24.80;36.90;;;;;;5044463;28;19912;-45
2022/02/18 13:32:20;;;;;;;;;;;24.90;36.90;;;;;;5033611;28;19911;-43
2022/02/18 13:34:47;;;;;;;;;;;24.90;36.80;;;;;;5037723;28;19917;-42
2022/02/18 13:37:19;;;;;;;;;;;24.90;36.80;;;;;;5046398;28;19909;-43
2022/02/18 13:39:45;;;;;;;;;;;24.90;36.70;;;;;;5041548;28;19921;-46
2022/02/18 13:42:11;;;;;;;;;;;25.00;36.60;;;;;;5049057;28;19936;-47
2022/02/18 13:44:37;;;;;;;;;;;25.00;36.50;;;;;;5038607;28;19944;-50
2022/02/18 13:47:06;;;;;;;;;;;25.00;36.40;;;;;;5048201;28;20255;-46
2022/02/18 13:49:32;;;;;;;;;;;25.00;36.30;;;;;;5042577;28;20288;-46
2022/02/18 13:51:58;;;;;;;;;;;25.00;36.20;;;;;;5040437;28;19904;-43
2022/02/18 13:54:27;;;;;;;;;;;25.00;36.10;;;;;;5036760;28;19923;-45
2022/02/18 13:57:03;;;;;;;;;;;25.00;36.10;;;;;;5042737;28;19916;-46
2022/02/18 13:59:30;;;;;;;;;;;25.00;35.90;;;;;;5042159;28;19917;-51
2022/02/18 14:02:01;;;;;;;;;;;25.00;35.10;;;;;;5042165;28;19917;-49
2022/02/18 14:04:28;;;;;;;;;;;25.00;34.30;;;;;;5037493;28;19967;-48
2022/02/18 14:06:56;;;;;;;;;;;25.00;34.10;;;;;;5049916;28;19913;-51
2022/02/18 14:09:23;;;;;;;;;;;25.00;33.90;;;;;;5040041;28;19928;-52
2022/02/18 14:11:51;;;;;;;;;;;25.00;33.80;;;;;;5027826;28;19905;-52
2022/02/18 14:14:17;;;;;;;;;;;25.00;33.60;;;;;;5037405;28;19960;-53
2022/02/18 14:16:49;;;;;;;;;;;25.00;33.50;;;;;;5046996;28;19915;-54
2022/02/18 14:19:15;;;;;;;;;;;24.90;33.20;;;;;;5041337;28;19963;-51